Inicio METAR Ruta Wind Satelite

Informe Meteorológico

Fecha: 2024/06/18 19:44:56 Local
2024.06.19 00:44 UTC


Operación:VFR
SKPC 190000Z NIL =

SKPC 182200Z 35004KT 9999 VCSH SCT017 32/24 Q1007 RMK VCSH/S
SKPC 182000Z 35005KT 9999 FEW020 32/24 Q1007
SKPC 181900Z 33006KT 9999 FEW020 32/24 Q1008
SKPC 181800Z 04006KT 9999 FEW020 31/24 Q1009
SKPC 181700Z 36003KT 9999 SCT020 30/24 Q1010